sensor_id;sensor_type;location;lat;lon;timestamp;temperature;humidity
26909;DHT22;14477;51.038;4.588;2024-03-07T00:01:02;7.90;99.90
26909;DHT22;14477;51.038;4.588;2024-03-07T00:03:29;7.20;99.90
26909;DHT22;14477;51.038;4.588;2024-03-07T00:05:54;7.90;99.90
26909;DHT22;14477;51.038;4.588;2024-03-07T00:08:20;7.90;99.90
26909;DHT22;14477;51.038;4.588;2024-03-07T00:10:46;7.80;99.90
26909;DHT22;14477;51.038;4.588;2024-03-07T00:13:13;7.90;99.90
26909;DHT22;14477;51.038;4.588;2024-03-07T00:15:38;7.70;99.90
26909;DHT22;14477;51.038;4.588;2024-03-07T00:18:05;7.80;99.90
26909;DHT22;14477;51.038;4.588;2024-03-07T00:20:31;7.80;99.90
26909;DHT22;14477;51.038;4.588;2024-03-07T00:22:57;7.80;99.90
26909;DHT22;14477;51.038;4.588;2024-03-07T00:25:23;7.80;99.90
26909;DHT22;14477;51.038;4.588;2024-03-07T00:27:48;7.80;99.90
26909;DHT22;14477;51.038;4.588;2024-03-07T00:30:15;7.80;99.90
26909;DHT22;14477;51.038;4.588;2024-03-07T00:32:44;7.80;99.90
26909;DHT22;14477;51.038;4.588;2024-03-07T00:35:10;7.80;99.90
26909;DHT22;14477;51.038;4.588;2024-03-07T00:37:36;7.80;99.90
26909;DHT22;14477;51.038;4.588;2024-03-07T00:40:02;7.80;99.90
26909;DHT22;14477;51.038;4.588;2024-03-07T00:42:28;7.80;99.90
26909;DHT22;14477;51.038;4.588;2024-03-07T00:44:54;7.80;99.90
26909;DHT22;14477;51.038;4.588;2024-03-07T00:47:20;7.80;99.90
26909;DHT22;14477;51.038;4.588;2024-03-07T00:49:46;7.70;99.90
26909;DHT22;14477;51.038;4.588;2024-03-07T00:52:13;7.70;99.90
26909;DHT22;14477;51.038;4.588;2024-03-07T00:54:38;7.70;99.90
26909;DHT22;14477;51.038;4.588;2024-03-07T00:57:04;7.70;99.90
26909;DHT22;14477;51.038;4.588;2024-03-07T00:59:30;10.10;99.90
26909;DHT22;14477;51.038;4.588;2024-03-07T01:01:56;7.70;99.90
26909;DHT22;14477;51.038;4.588;2024-03-07T01:04:22;7.60;99.90
26909;DHT22;14477;51.038;4.588;2024-03-07T01:06:48;7.60;99.90
26909;DHT22;14477;51.038;4.588;2024-03-07T01:09:14;7.60;99.90
26909;DHT22;14477;51.038;4.588;2024-03-07T01:11:42;7.60;99.90
26909;DHT22;14477;51.038;4.588;2024-03-07T01:14:08;7.60;99.90
26909;DHT22;14477;51.038;4.588;2024-03-07T01:16:33;7.50;99.90
26909;DHT22;14477;51.038;4.588;2024-03-07T01:19:00;7.50;99.90
26909;DHT22;14477;51.038;4.588;2024-03-07T01:21:26;7.50;99.90
26909;DHT22;14477;51.038;4.588;2024-03-07T01:23:52;7.40;99.90
26909;DHT22;14477;51.038;4.588;2024-03-07T01:26:18;7.40;99.90
26909;DHT22;14477;51.038;4.588;2024-03-07T01:28:44;7.40;99.90
26909;DHT22;14477;51.038;4.588;2024-03-07T01:31:09;7.40;99.90
26909;DHT22;14477;51.038;4.588;2024-03-07T01:33:36;7.40;99.90
26909;DHT22;14477;51.038;4.588;2024-03-07T01:36:01;7.40;99.90
26909;DHT22;14477;51.038;4.588;2024-03-07T01:38:27;7.40;99.90
26909;DHT22;14477;51.038;4.588;2024-03-07T01:40:53;7.40;99.90
26909;DHT22;14477;51.038;4.588;2024-03-07T01:43:20;7.30;99.90
26909;DHT22;14477;51.038;4.588;2024-03-07T01:45:47;7.30;99.90
26909;DHT22;14477;51.038;4.588;2024-03-07T01:48:25;7.30;99.90
26909;DHT22;14477;51.038;4.588;2024-03-07T01:50:51;7.30;99.90
26909;DHT22;14477;51.038;4.588;2024-03-07T01:53:17;7.30;99.90
26909;DHT22;14477;51.038;4.588;2024-03-07T01:55:43;7.30;99.90
26909;DHT22;14477;51.038;4.588;2024-03-07T01:58:13;7.30;99.90
26909;DHT22;14477;51.038;4.588;2024-03-07T02:00:39;7.30;99.90
26909;DHT22;14477;51.038;4.588;2024-03-07T02:03:05;7.30;99.90
26909;DHT22;14477;51.038;4.588;2024-03-07T02:05:33;7.30;99.90
26909;DHT22;14477;51.038;4.588;2024-03-07T02:07:59;7.30;99.90
26909;DHT22;14477;51.038;4.588;2024-03-07T02:10:25;7.20;99.90
26909;DHT22;14477;51.038;4.588;2024-03-07T02:12:50;4.10;99.90
26909;DHT22;14477;51.038;4.588;2024-03-07T02:15:16;7.20;99.90
26909;DHT22;14477;51.038;4.588;2024-03-07T02:17:43;7.20;99.90
26909;DHT22;14477;51.038;4.588;2024-03-07T02:20:09;7.20;99.90
26909;DHT22;14477;51.038;4.588;2024-03-07T02:22:37;7.20;99.90
26909;DHT22;14477;51.038;4.588;2024-03-07T02:25:03;7.10;99.90
26909;DHT22;14477;51.038;4.588;2024-03-07T02:27:29;7.10;99.90
26909;DHT22;14477;51.038;4.588;2024-03-07T02:29:55;7.10;99.90
26909;DHT22;14477;51.038;4.588;2024-03-07T02:32:21;7.10;99.90
26909;DHT22;14477;51.038;4.588;2024-03-07T02:34:46;7.00;99.90
26909;DHT22;14477;51.038;4.588;2024-03-07T02:37:12;7.00;99.90
26909;DHT22;14477;51.038;4.588;2024-03-07T02:39:39;7.00;99.90
26909;DHT22;14477;51.038;4.588;2024-03-07T02:42:05;6.90;99.90
26909;DHT22;14477;51.038;4.588;2024-03-07T02:44:31;6.90;99.90
26909;DHT22;14477;51.038;4.588;2024-03-07T02:46:58;6.90;99.90
26909;DHT22;14477;51.038;4.588;2024-03-07T02:49:24;9.70;99.90
26909;DHT22;14477;51.038;4.588;2024-03-07T02:51:49;6.20;99.90
26909;DHT22;14477;51.038;4.588;2024-03-07T02:54:15;5.60;99.90
26909;DHT22;14477;51.038;4.588;2024-03-07T02:56:41;6.70;99.90
26909;DHT22;14477;51.038;4.588;2024-03-07T02:59:07;6.60;99.90
26909;DHT22;14477;51.038;4.588;2024-03-07T03:01:33;6.60;99.90
26909;DHT22;14477;51.038;4.588;2024-03-07T03:03:58;5.30;99.90
26909;DHT22;14477;51.038;4.588;2024-03-07T03:06:24;6.50;99.90
26909;DHT22;14477;51.038;4.588;2024-03-07T03:08:50;6.50;99.90
26909;DHT22;14477;51.038;4.588;2024-03-07T03:11:16;6.40;99.90
26909;DHT22;14477;51.038;4.588;2024-03-07T03:13:41;6.40;99.90
26909;DHT22;14477;51.038;4.588;2024-03-07T03:16:08;6.40;99.90
26909;DHT22;14477;51.038;4.588;2024-03-07T03:18:34;6.40;99.90
26909;DHT22;14477;51.038;4.588;2024-03-07T03:21:00;6.30;99.90
26909;DHT22;14477;51.038;4.588;2024-03-07T03:23:28;6.30;99.90
26909;DHT22;14477;51.038;4.588;2024-03-07T03:25:54;6.30;99.90
26909;DHT22;14477;51.038;4.588;2024-03-07T03:28:21;4.00;99.90
26909;DHT22;14477;51.038;4.588;2024-03-07T03:30:48;6.20;99.90
26909;DHT22;14477;51.038;4.588;2024-03-07T03:33:14;6.30;99.90
26909;DHT22;14477;51.038;4.588;2024-03-07T03:35:41;6.20;99.90
26909;DHT22;14477;51.038;4.588;2024-03-07T03:38:07;6.30;99.90
26909;DHT22;14477;51.038;4.588;2024-03-07T03:40:33;6.20;99.90
26909;DHT22;14477;51.038;4.588;2024-03-07T03:43:02;6.30;99.90
26909;DHT22;14477;51.038;4.588;2024-03-07T03:45:28;6.30;99.90
26909;DHT22;14477;51.038;4.588;2024-03-07T03:47:53;6.30;99.90
26909;DHT22;14477;51.038;4.588;2024-03-07T03:50:19;6.30;99.90
26909;DHT22;14477;51.038;4.588;2024-03-07T03:52:46;6.30;99.90
26909;DHT22;14477;51.038;4.588;2024-03-07T03:55:12;6.30;99.90
26909;DHT22;14477;51.038;4.588;2024-03-07T03:57:39;6.40;99.90
26909;DHT22;14477;51.038;4.588;2024-03-07T04:00:06;6.40;99.90
26909;DHT22;14477;51.038;4.588;2024-03-07T04:02:42;6.40;99.90
26909;DHT22;14477;51.038;4.588;2024-03-07T04:05:10;6.40;99.90
26909;DHT22;14477;51.038;4.588;2024-03-07T04:07:40;6.40;99.90
26909;DHT22;14477;51.038;4.588;2024-03-07T04:10:07;6.40;99.90
26909;DHT22;14477;51.038;4.588;2024-03-07T04:12:34;6.40;99.90
26909;DHT22;14477;51.038;4.588;2024-03-07T04:15:00;6.40;99.90
26909;DHT22;14477;51.038;4.588;2024-03-07T04:17:26;6.30;99.90
26909;DHT22;14477;51.038;4.588;2024-03-07T04:19:52;6.30;99.90
26909;DHT22;14477;51.038;4.588;2024-03-07T04:22:18;6.40;99.90
26909;DHT22;14477;51.038;4.588;2024-03-07T04:24:47;6.40;99.90
26909;DHT22;14477;51.038;4.588;2024-03-07T04:27:19;5.20;99.90
26909;DHT22;14477;51.038;4.588;2024-03-07T04:29:45;6.30;99.90
26909;DHT22;14477;51.038;4.588;2024-03-07T04:32:13;6.40;99.90
26909;DHT22;14477;51.038;4.588;2024-03-07T04:34:39;6.30;99.90
26909;DHT22;14477;51.038;4.588;2024-03-07T04:37:05;6.30;99.90
26909;DHT22;14477;51.038;4.588;2024-03-07T04:39:31;6.40;99.90
26909;DHT22;14477;51.038;4.588;2024-03-07T04:42:03;8.50;99.90
26909;DHT22;14477;51.038;4.588;2024-03-07T04:44:32;6.30;99.90
26909;DHT22;14477;51.038;4.588;2024-03-07T04:46:59;6.30;99.90
26909;DHT22;14477;51.038;4.588;2024-03-07T04:49:27;6.30;99.90
26909;DHT22;14477;51.038;4.588;2024-03-07T04:51:55;6.30;99.90
26909;DHT22;14477;51.038;4.588;2024-03-07T04:54:21;6.30;99.90
26909;DHT22;14477;51.038;4.588;2024-03-07T04:56:49;6.30;99.90
26909;DHT22;14477;51.038;4.588;2024-03-07T04:59:15;6.20;99.90
26909;DHT22;14477;51.038;4.588;2024-03-07T05:01:42;6.20;99.90
26909;DHT22;14477;51.038;4.588;2024-03-07T05:04:09;6.20;99.90
26909;DHT22;14477;51.038;4.588;2024-03-07T05:06:35;6.20;99.90
26909;DHT22;14477;51.038;4.588;2024-03-07T05:09:05;6.20;99.90
26909;DHT22;14477;51.038;4.588;2024-03-07T05:11:33;6.20;99.90
26909;DHT22;14477;51.038;4.588;2024-03-07T05:13:59;6.20;99.90
26909;DHT22;14477;51.038;4.588;2024-03-07T05:16:30;6.20;99.90
26909;DHT22;14477;51.038;4.588;2024-03-07T05:18:56;6.10;99.90
26909;DHT22;14477;51.038;4.588;2024-03-07T05:21:26;6.20;99.90
26909;DHT22;14477;51.038;4.588;2024-03-07T05:23:58;6.10;99.90
26909;DHT22;14477;51.038;4.588;2024-03-07T05:26:24;6.10;99.90
26909;DHT22;14477;51.038;4.588;2024-03-07T05:28:51;6.20;99.90
26909;DHT22;14477;51.038;4.588;2024-03-07T05:31:18;6.20;99.90
26909;DHT22;14477;51.038;4.588;2024-03-07T05:33:45;6.20;99.90
26909;DHT22;14477;51.038;4.588;2024-03-07T05:36:11;6.30;99.90
26909;DHT22;14477;51.038;4.588;2024-03-07T05:38:43;6.30;99.90
26909;DHT22;14477;51.038;4.588;2024-03-07T05:41:12;6.40;99.90
26909;DHT22;14477;51.038;4.588;2024-03-07T05:43:39;6.40;99.90
26909;DHT22;14477;51.038;4.588;2024-03-07T05:46:05;6.50;99.90
26909;DHT22;14477;51.038;4.588;2024-03-07T05:48:33;8.50;99.90
26909;DHT22;14477;51.038;4.588;2024-03-07T05:50:59;6.60;99.90
26909;DHT22;14477;51.038;4.588;2024-03-07T05:53:25;6.70;99.90
26909;DHT22;14477;51.038;4.588;2024-03-07T05:55:51;6.70;99.90
26909;DHT22;14477;51.038;4.588;2024-03-07T05:58:17;6.80;99.90
26909;DHT22;14477;51.038;4.588;2024-03-07T06:00:45;6.80;99.90
26909;DHT22;14477;51.038;4.588;2024-03-07T06:03:18;5.80;99.90
26909;DHT22;14477;51.038;4.588;2024-03-07T06:05:49;6.80;99.90
26909;DHT22;14477;51.038;4.588;2024-03-07T06:08:17;6.90;99.90
26909;DHT22;14477;51.038;4.588;2024-03-07T06:10:45;6.90;99.90
26909;DHT22;14477;51.038;4.588;2024-03-07T06:13:14;7.00;99.90
26909;DHT22;14477;51.038;4.588;2024-03-07T06:15:40;7.00;99.90
26909;DHT22;14477;51.038;4.588;2024-03-07T06:18:06;7.00;99.90
26909;DHT22;14477;51.038;4.588;2024-03-07T06:20:34;7.00;99.90
26909;DHT22;14477;51.038;4.588;2024-03-07T06:23:01;6.10;99.90
26909;DHT22;14477;51.038;4.588;2024-03-07T06:25:31;7.00;99.90
26909;DHT22;14477;51.038;4.588;2024-03-07T06:28:05;7.00;99.90
26909;DHT22;14477;51.038;4.588;2024-03-07T06:30:43;7.10;99.90
26909;DHT22;14477;51.038;4.588;2024-03-07T06:33:10;7.10;99.90
26909;DHT22;14477;51.038;4.588;2024-03-07T06:35:36;7.10;99.90
26909;DHT22;14477;51.038;4.588;2024-03-07T06:38:08;7.10;99.90
26909;DHT22;14477;51.038;4.588;2024-03-07T06:40:43;7.10;99.90
26909;DHT22;14477;51.038;4.588;2024-03-07T06:43:09;7.10;99.90
26909;DHT22;14477;51.038;4.588;2024-03-07T06:45:38;7.10;99.90
26909;DHT22;14477;51.038;4.588;2024-03-07T06:48:07;7.10;99.90
26909;DHT22;14477;51.038;4.588;2024-03-07T06:50:35;7.20;99.90
26909;DHT22;14477;51.038;4.588;2024-03-07T06:53:05;7.20;99.90
26909;DHT22;14477;51.038;4.588;2024-03-07T06:55:37;7.20;99.90
26909;DHT22;14477;51.038;4.588;2024-03-07T06:58:03;7.20;99.90
26909;DHT22;14477;51.038;4.588;2024-03-07T07:00:32;7.20;99.90
26909;DHT22;14477;51.038;4.588;2024-03-07T07:03:01;7.20;99.90
26909;DHT22;14477;51.038;4.588;2024-03-07T07:05:29;7.20;99.90
26909;DHT22;14477;51.038;4.588;2024-03-07T07:07:55;7.30;99.90
26909;DHT22;14477;51.038;4.588;2024-03-07T07:10:21;7.20;99.90
26909;DHT22;14477;51.038;4.588;2024-03-07T07:12:50;7.20;99.90
26909;DHT22;14477;51.038;4.588;2024-03-07T07:15:18;7.30;99.90
26909;DHT22;14477;51.038;4.588;2024-03-07T07:17:47;7.30;99.90
26909;DHT22;14477;51.038;4.588;2024-03-07T07:20:15;7.30;99.90
26909;DHT22;14477;51.038;4.588;2024-03-07T07:22:42;7.40;99.90
26909;DHT22;14477;51.038;4.588;2024-03-07T07:25:08;7.30;99.90
26909;DHT22;14477;51.038;4.588;2024-03-07T07:27:48;7.40;99.90
26909;DHT22;14477;51.038;4.588;2024-03-07T07:30:15;7.40;99.90
26909;DHT22;14477;51.038;4.588;2024-03-07T07:32:42;7.40;99.90
26909;DHT22;14477;51.038;4.588;2024-03-07T07:35:09;7.40;99.90
26909;DHT22;14477;51.038;4.588;2024-03-07T07:37:50;7.50;99.90
26909;DHT22;14477;51.038;4.588;2024-03-07T07:40:23;7.50;99.90
26909;DHT22;14477;51.038;4.588;2024-03-07T07:42:51;6.90;99.90
26909;DHT22;14477;51.038;4.588;2024-03-07T07:45:18;7.50;99.90
26909;DHT22;14477;51.038;4.588;2024-03-07T07:47:49;7.60;99.90
26909;DHT22;14477;51.038;4.588;2024-03-07T07:50:16;7.60;99.90
26909;DHT22;14477;51.038;4.588;2024-03-07T07:52:44;7.70;99.90
26909;DHT22;14477;51.038;4.588;2024-03-07T07:55:11;9.80;99.90
26909;DHT22;14477;51.038;4.588;2024-03-07T07:57:44;7.80;99.90
26909;DHT22;14477;51.038;4.588;2024-03-07T08:00:16;7.90;99.90
26909;DHT22;14477;51.038;4.588;2024-03-07T08:02:57;7.90;99.90
26909;DHT22;14477;51.038;4.588;2024-03-07T08:05:25;7.90;99.90
26909;DHT22;14477;51.038;4.588;2024-03-07T08:07:52;8.00;99.90
26909;DHT22;14477;51.038;4.588;2024-03-07T08:10:22;8.00;99.90
26909;DHT22;14477;51.038;4.588;2024-03-07T08:12:49;8.00;99.90
26909;DHT22;14477;51.038;4.588;2024-03-07T08:15:15;8.10;99.90
26909;DHT22;14477;51.038;4.588;2024-03-07T08:17:45;8.20;99.90
26909;DHT22;14477;51.038;4.588;2024-03-07T08:20:12;8.30;99.90
26909;DHT22;14477;51.038;4.588;2024-03-07T08:22:42;8.40;99.90
26909;DHT22;14477;51.038;4.588;2024-03-07T08:25:14;8.50;99.90
26909;DHT22;14477;51.038;4.588;2024-03-07T08:27:41;8.60;99.90
26909;DHT22;14477;51.038;4.588;2024-03-07T08:30:09;8.60;99.90
26909;DHT22;14477;51.038;4.588;2024-03-07T08:32:46;8.70;99.90
26909;DHT22;14477;51.038;4.588;2024-03-07T08:35:12;8.80;99.90
26909;DHT22;14477;51.038;4.588;2024-03-07T08:37:39;8.80;99.90
26909;DHT22;14477;51.038;4.588;2024-03-07T08:40:06;8.90;99.90
26909;DHT22;14477;51.038;4.588;2024-03-07T08:42:40;9.00;99.90
26909;DHT22;14477;51.038;4.588;2024-03-07T08:45:07;9.10;99.90
26909;DHT22;14477;51.038;4.588;2024-03-07T08:47:36;9.30;99.90
26909;DHT22;14477;51.038;4.588;2024-03-07T08:50:04;9.40;99.90
26909;DHT22;14477;51.038;4.588;2024-03-07T08:52:34;9.60;99.90
26909;DHT22;14477;51.038;4.588;2024-03-07T08:55:03;9.80;99.90
26909;DHT22;14477;51.038;4.588;2024-03-07T08:57:29;10.10;99.90
26909;DHT22;14477;51.038;4.588;2024-03-07T08:59:55;10.30;99.90
26909;DHT22;14477;51.038;4.588;2024-03-07T09:02:20;10.50;99.90
26909;DHT22;14477;51.038;4.588;2024-03-07T09:04:46;10.80;99.90
26909;DHT22;14477;51.038;4.588;2024-03-07T09:07:12;11.10;99.90
26909;DHT22;14477;51.038;4.588;2024-03-07T09:09:40;11.40;99.90
26909;DHT22;14477;51.038;4.588;2024-03-07T09:12:09;11.70;99.90
26909;DHT22;14477;51.038;4.588;2024-03-07T09:14:35;12.10;99.90
26909;DHT22;14477;51.038;4.588;2024-03-07T09:17:01;12.60;99.90
26909;DHT22;14477;51.038;4.588;2024-03-07T09:19:27;13.00;99.90
26909;DHT22;14477;51.038;4.588;2024-03-07T09:21:54;13.50;99.90
26909;DHT22;14477;51.038;4.588;2024-03-07T09:24:20;13.90;99.90
26909;DHT22;14477;51.038;4.588;2024-03-07T09:26:52;14.20;99.90
26909;DHT22;14477;51.038;4.588;2024-03-07T09:29:19;14.70;99.90
26909;DHT22;14477;51.038;4.588;2024-03-07T09:31:46;15.10;99.90
26909;DHT22;14477;51.038;4.588;2024-03-07T09:34:15;15.50;99.90
26909;DHT22;14477;51.038;4.588;2024-03-07T09:36:41;15.80;99.90
26909;DHT22;14477;51.038;4.588;2024-03-07T09:39:08;16.20;99.90
26909;DHT22;14477;51.038;4.588;2024-03-07T09:41:34;16.50;99.90
26909;DHT22;14477;51.038;4.588;2024-03-07T09:44:01;16.80;99.90
26909;DHT22;14477;51.038;4.588;2024-03-07T09:46:28;17.10;99.90
26909;DHT22;14477;51.038;4.588;2024-03-07T09:48:55;17.30;99.90
26909;DHT22;14477;51.038;4.588;2024-03-07T09:51:21;17.60;99.90
26909;DHT22;14477;51.038;4.588;2024-03-07T09:53:49;17.80;99.90
26909;DHT22;14477;51.038;4.588;2024-03-07T09:56:19;18.00;99.90
26909;DHT22;14477;51.038;4.588;2024-03-07T09:58:50;18.20;99.90
26909;DHT22;14477;51.038;4.588;2024-03-07T10:01:20;18.50;99.90
26909;DHT22;14477;51.038;4.588;2024-03-07T10:03:47;18.70;99.90
26909;DHT22;14477;51.038;4.588;2024-03-07T10:06:14;18.90;99.90
26909;DHT22;14477;51.038;4.588;2024-03-07T10:08:43;19.20;99.90
26909;DHT22;14477;51.038;4.588;2024-03-07T10:11:09;19.30;99.90
26909;DHT22;14477;51.038;4.588;2024-03-07T10:13:35;19.50;99.90
26909;DHT22;14477;51.038;4.588;2024-03-07T10:16:01;19.70;99.90
26909;DHT22;14477;51.038;4.588;2024-03-07T10:18:27;19.80;99.90
26909;DHT22;14477;51.038;4.588;2024-03-07T10:20:54;20.10;99.90
26909;DHT22;14477;51.038;4.588;2024-03-07T10:23:21;20.30;99.90
26909;DHT22;14477;51.038;4.588;2024-03-07T10:25:47;20.50;99.90
26909;DHT22;14477;51.038;4.588;2024-03-07T10:28:16;20.60;99.90
26909;DHT22;14477;51.038;4.588;2024-03-07T10:30:43;20.70;99.90
26909;DHT22;14477;51.038;4.588;2024-03-07T10:33:13;20.80;99.90
26909;DHT22;14477;51.038;4.588;2024-03-07T10:35:39;21.00;99.90
26909;DHT22;14477;51.038;4.588;2024-03-07T10:38:05;21.10;99.90
26909;DHT22;14477;51.038;4.588;2024-03-07T10:40:38;21.20;99.90
26909;DHT22;14477;51.038;4.588;2024-03-07T10:43:09;21.40;99.90
26909;DHT22;14477;51.038;4.588;2024-03-07T10:45:45;21.60;99.90
26909;DHT22;14477;51.038;4.588;2024-03-07T10:48:18;21.80;99.90
26909;DHT22;14477;51.038;4.588;2024-03-07T10:51:14;22.10;99.90
26909;DHT22;14477;51.038;4.588;2024-03-07T10:54:04;22.40;99.90
26909;DHT22;14477;51.038;4.588;2024-03-07T10:59:26;22.70;99.90
26909;DHT22;14477;51.038;4.588;2024-03-07T11:04:42;22.60;99.90
26909;DHT22;14477;51.038;4.588;2024-03-07T11:07:08;22.50;99.90
26909;DHT22;14477;51.038;4.588;2024-03-07T11:09:36;22.50;99.90
26909;DHT22;14477;51.038;4.588;2024-03-07T11:12:03;22.50;99.90
26909;DHT22;14477;51.038;4.588;2024-03-07T11:14:31;22.50;99.90
26909;DHT22;14477;51.038;4.588;2024-03-07T11:16:58;22.50;99.90
26909;DHT22;14477;51.038;4.588;2024-03-07T11:19:28;22.60;99.90
26909;DHT22;14477;51.038;4.588;2024-03-07T11:21:56;22.70;99.90
26909;DHT22;14477;51.038;4.588;2024-03-07T11:24:30;22.60;99.90
26909;DHT22;14477;51.038;4.588;2024-03-07T11:26:59;22.30;99.90
26909;DHT22;14477;51.038;4.588;2024-03-07T11:29:47;22.00;99.90
26909;DHT22;14477;51.038;4.588;2024-03-07T11:32:14;21.80;99.90
26909;DHT22;14477;51.038;4.588;2024-03-07T11:34:41;21.60;99.90
26909;DHT22;14477;51.038;4.588;2024-03-07T11:37:08;21.50;99.90
26909;DHT22;14477;51.038;4.588;2024-03-07T11:39:46;21.40;99.90
26909;DHT22;14477;51.038;4.588;2024-03-07T11:42:31;21.20;99.90
26909;DHT22;14477;51.038;4.588;2024-03-07T11:45:02;21.10;99.90
26909;DHT22;14477;51.038;4.588;2024-03-07T11:47:38;20.90;99.90
26909;DHT22;14477;51.038;4.588;2024-03-07T11:50:05;20.60;99.90
26909;DHT22;14477;51.038;4.588;2024-03-07T11:52:40;20.30;99.90
26909;DHT22;14477;51.038;4.588;2024-03-07T11:55:09;20.10;99.90
26909;DHT22;14477;51.038;4.588;2024-03-07T11:57:36;19.80;99.90
26909;DHT22;14477;51.038;4.588;2024-03-07T12:00:03;19.60;99.90
26909;DHT22;14477;51.038;4.588;2024-03-07T12:02:40;19.60;99.90
26909;DHT22;14477;51.038;4.588;2024-03-07T12:05:06;19.50;99.90
26909;DHT22;14477;51.038;4.588;2024-03-07T12:07:33;19.50;99.90
26909;DHT22;14477;51.038;4.588;2024-03-07T12:10:00;19.50;99.90
26909;DHT22;14477;51.038;4.588;2024-03-07T12:12:29;19.60;99.90
26909;DHT22;14477;51.038;4.588;2024-03-07T12:14:55;19.60;99.90
26909;DHT22;14477;51.038;4.588;2024-03-07T12:17:22;19.60;99.90
26909;DHT22;14477;51.038;4.588;2024-03-07T12:19:49;19.60;99.90
26909;DHT22;14477;51.038;4.588;2024-03-07T12:22:21;19.60;99.90
26909;DHT22;14477;51.038;4.588;2024-03-07T12:25:02;19.50;99.90
26909;DHT22;14477;51.038;4.588;2024-03-07T12:27:28;19.60;99.90
26909;DHT22;14477;51.038;4.588;2024-03-07T12:29:55;19.70;99.90
26909;DHT22;14477;51.038;4.588;2024-03-07T12:32:21;20.00;99.90
26909;DHT22;14477;51.038;4.588;2024-03-07T12:34:47;20.30;99.90
26909;DHT22;14477;51.038;4.588;2024-03-07T12:37:13;20.70;99.90
26909;DHT22;14477;51.038;4.588;2024-03-07T12:39:43;21.10;99.90
26909;DHT22;14477;51.038;4.588;2024-03-07T12:42:18;21.30;99.90
26909;DHT22;14477;51.038;4.588;2024-03-07T12:44:46;21.30;99.90
26909;DHT22;14477;51.038;4.588;2024-03-07T12:47:15;21.20;99.90
26909;DHT22;14477;51.038;4.588;2024-03-07T12:49:41;21.10;99.90
26909;DHT22;14477;51.038;4.588;2024-03-07T12:52:08;20.80;99.90
26909;DHT22;14477;51.038;4.588;2024-03-07T12:54:34;20.70;99.90
26909;DHT22;14477;51.038;4.588;2024-03-07T12:57:03;20.40;99.90
26909;DHT22;14477;51.038;4.588;2024-03-07T12:59:31;20.10;99.90
26909;DHT22;14477;51.038;4.588;2024-03-07T13:01:56;19.90;99.90
26909;DHT22;14477;51.038;4.588;2024-03-07T13:04:22;19.60;99.90
26909;DHT22;14477;51.038;4.588;2024-03-07T13:06:51;19.40;99.90
26909;DHT22;14477;51.038;4.588;2024-03-07T13:09:16;19.50;99.90
26909;DHT22;14477;51.038;4.588;2024-03-07T13:11:53;19.60;99.90
26909;DHT22;14477;51.038;4.588;2024-03-07T13:14:19;19.80;99.90
26909;DHT22;14477;51.038;4.588;2024-03-07T13:16:45;20.00;99.90
26909;DHT22;14477;51.038;4.588;2024-03-07T13:19:10;20.30;99.90
26909;DHT22;14477;51.038;4.588;2024-03-07T13:21:38;20.60;99.90
26909;DHT22;14477;51.038;4.588;2024-03-07T13:24:05;20.70;99.90
26909;DHT22;14477;51.038;4.588;2024-03-07T13:26:31;20.60;99.90
26909;DHT22;14477;51.038;4.588;2024-03-07T13:28:57;20.50;99.90
26909;DHT22;14477;51.038;4.588;2024-03-07T13:31:30;20.30;99.90
26909;DHT22;14477;51.038;4.588;2024-03-07T13:33:56;20.10;99.90
26909;DHT22;14477;51.038;4.588;2024-03-07T13:36:22;20.00;99.90
26909;DHT22;14477;51.038;4.588;2024-03-07T13:38:52;19.90;99.90
26909;DHT22;14477;51.038;4.588;2024-03-07T13:41:22;19.90;99.90
26909;DHT22;14477;51.038;4.588;2024-03-07T13:43:48;20.00;99.90
26909;DHT22;14477;51.038;4.588;2024-03-07T13:46:15;20.00;99.90
26909;DHT22;14477;51.038;4.588;2024-03-07T13:48:43;20.00;99.90
26909;DHT22;14477;51.038;4.588;2024-03-07T13:51:10;20.10;99.90
26909;DHT22;14477;51.038;4.588;2024-03-07T13:53:40;20.20;99.90
26909;DHT22;14477;51.038;4.588;2024-03-07T13:56:54;20.20;99.90
26909;DHT22;14477;51.038;4.588;2024-03-07T14:02:25;20.40;99.90
26909;DHT22;14477;51.038;4.588;2024-03-07T14:10:46;20.40;99.90
26909;DHT22;14477;51.038;4.588;2024-03-07T14:27:31;20.00;99.90
26909;DHT22;14477;51.038;4.588;2024-03-07T14:33:00;19.80;99.90
26909;DHT22;14477;51.038;4.588;2024-03-07T14:38:50;19.60;99.90
26909;DHT22;14477;51.038;4.588;2024-03-07T14:41:15;19.40;99.90
26909;DHT22;14477;51.038;4.588;2024-03-07T14:43:43;19.30;99.90
26909;DHT22;14477;51.038;4.588;2024-03-07T14:46:14;19.10;99.90
26909;DHT22;14477;51.038;4.588;2024-03-07T14:48:40;19.00;99.90
26909;DHT22;14477;51.038;4.588;2024-03-07T14:51:11;18.80;99.90
26909;DHT22;14477;51.038;4.588;2024-03-07T14:53:39;18.50;99.90
26909;DHT22;14477;51.038;4.588;2024-03-07T14:56:07;18.40;99.90
26909;DHT22;14477;51.038;4.588;2024-03-07T14:58:34;18.20;99.90
26909;DHT22;14477;51.038;4.588;2024-03-07T15:01:00;18.10;99.90
26909;DHT22;14477;51.038;4.588;2024-03-07T15:03:27;17.90;99.90
26909;DHT22;14477;51.038;4.588;2024-03-07T15:05:56;17.80;99.90
26909;DHT22;14477;51.038;4.588;2024-03-07T15:08:22;17.70;99.90
26909;DHT22;14477;51.038;4.588;2024-03-07T15:10:55;17.60;99.90
26909;DHT22;14477;51.038;4.588;2024-03-07T15:13:21;17.40;99.90
26909;DHT22;14477;51.038;4.588;2024-03-07T15:15:48;17.30;99.90
26909;DHT22;14477;51.038;4.588;2024-03-07T15:18:14;17.20;99.90
26909;DHT22;14477;51.038;4.588;2024-03-07T15:20:39;17.10;99.90
26909;DHT22;14477;51.038;4.588;2024-03-07T15:23:07;17.10;99.90
26909;DHT22;14477;51.038;4.588;2024-03-07T15:25:33;16.90;99.90
26909;DHT22;14477;51.038;4.588;2024-03-07T15:28:02;16.80;99.90
26909;DHT22;14477;51.038;4.588;2024-03-07T15:30:29;16.80;99.90
26909;DHT22;14477;51.038;4.588;2024-03-07T15:33:01;16.70;99.90
26909;DHT22;14477;51.038;4.588;2024-03-07T15:35:27;16.70;99.90
26909;DHT22;14477;51.038;4.588;2024-03-07T15:37:53;16.70;99.90
26909;DHT22;14477;51.038;4.588;2024-03-07T15:40:20;16.50;99.90
26909;DHT22;14477;51.038;4.588;2024-03-07T15:42:48;16.50;99.90
26909;DHT22;14477;51.038;4.588;2024-03-07T15:45:18;16.40;99.90
26909;DHT22;14477;51.038;4.588;2024-03-07T15:47:45;16.30;99.90
26909;DHT22;14477;51.038;4.588;2024-03-07T15:50:11;16.30;99.90
26909;DHT22;14477;51.038;4.588;2024-03-07T15:52:38;16.20;99.90
26909;DHT22;14477;51.038;4.588;2024-03-07T15:55:07;16.20;99.90
26909;DHT22;14477;51.038;4.588;2024-03-07T15:57:41;16.10;99.90
26909;DHT22;14477;51.038;4.588;2024-03-07T16:00:08;16.00;99.90
26909;DHT22;14477;51.038;4.588;2024-03-07T16:02:52;16.00;99.90
26909;DHT22;14477;51.038;4.588;2024-03-07T16:05:19;15.90;99.90
26909;DHT22;14477;51.038;4.588;2024-03-07T16:07:44;15.80;99.90
26909;DHT22;14477;51.038;4.588;2024-03-07T16:10:11;15.70;99.90
26909;DHT22;14477;51.038;4.588;2024-03-07T16:12:39;15.70;99.90
26909;DHT22;14477;51.038;4.588;2024-03-07T16:15:06;15.60;99.90
26909;DHT22;14477;51.038;4.588;2024-03-07T16:17:34;15.50;99.90
26909;DHT22;14477;51.038;4.588;2024-03-07T16:20:05;15.50;99.90